sensor_id;sensor_type;location;lat;lon;timestamp;P1;durP1;ratioP1;P2;durP2;ratioP2
13805;SDS011;6974;53.606;9.872;2022-11-04T00:01:22;9.07;;;4.60;;
13805;SDS011;6974;53.606;9.872;2022-11-04T00:03:49;8.03;;;4.97;;
13805;SDS011;6974;53.606;9.872;2022-11-04T00:06:19;5.67;;;4.70;;
13805;SDS011;6974;53.606;9.872;2022-11-04T00:08:48;7.57;;;4.87;;
13805;SDS011;6974;53.606;9.872;2022-11-04T00:11:15;11.30;;;5.50;;
13805;SDS011;6974;53.606;9.872;2022-11-04T00:14:00;6.50;;;4.83;;
13805;SDS011;6974;53.606;9.872;2022-11-04T00:16:27;9.80;;;5.07;;
13805;SDS011;6974;53.606;9.872;2022-11-04T00:19:12;7.33;;;5.13;;
13805;SDS011;6974;53.606;9.872;2022-11-04T00:21:40;9.00;;;4.60;;
13805;SDS011;6974;53.606;9.872;2022-11-04T00:24:24;8.17;;;4.93;;
13805;SDS011;6974;53.606;9.872;2022-11-04T00:27:08;9.20;;;4.90;;
13805;SDS011;6974;53.606;9.872;2022-11-04T00:29:53;8.47;;;4.53;;
13805;SDS011;6974;53.606;9.872;2022-11-04T00:32:20;8.13;;;4.90;;
13805;SDS011;6974;53.606;9.872;2022-11-04T00:35:05;7.03;;;4.97;;
13805;SDS011;6974;53.606;9.872;2022-11-04T00:37:36;8.47;;;4.80;;
13805;SDS011;6974;53.606;9.872;2022-11-04T00:40:03;8.87;;;5.33;;
13805;SDS011;6974;53.606;9.872;2022-11-04T00:42:31;12.90;;;5.07;;
13805;SDS011;6974;53.606;9.872;2022-11-04T00:44:58;10.10;;;5.40;;
13805;SDS011;6974;53.606;9.872;2022-11-04T00:47:25;10.63;;;5.33;;
13805;SDS011;6974;53.606;9.872;2022-11-04T00:49:52;8.00;;;5.20;;
13805;SDS011;6974;53.606;9.872;2022-11-04T00:52:19;8.50;;;4.97;;
13805;SDS011;6974;53.606;9.872;2022-11-04T00:54:47;7.40;;;5.07;;
13805;SDS011;6974;53.606;9.872;2022-11-04T00:57:14;8.47;;;4.90;;
13805;SDS011;6974;53.606;9.872;2022-11-04T00:59:41;7.70;;;5.30;;
13805;SDS011;6974;53.606;9.872;2022-11-04T01:02:10;8.93;;;4.23;;
13805;SDS011;6974;53.606;9.872;2022-11-04T01:04:37;7.73;;;4.80;;
13805;SDS011;6974;53.606;9.872;2022-11-04T01:07:04;8.43;;;5.30;;
13805;SDS011;6974;53.606;9.872;2022-11-04T01:09:31;7.27;;;5.23;;
13805;SDS011;6974;53.606;9.872;2022-11-04T01:11:59;8.77;;;4.70;;
13805;SDS011;6974;53.606;9.872;2022-11-04T01:14:26;6.60;;;4.87;;
13805;SDS011;6974;53.606;9.872;2022-11-04T01:16:52;9.17;;;5.30;;
13805;SDS011;6974;53.606;9.872;2022-11-04T01:19:19;7.20;;;4.70;;
13805;SDS011;6974;53.606;9.872;2022-11-04T01:21:48;5.80;;;4.70;;
13805;SDS011;6974;53.606;9.872;2022-11-04T01:24:16;8.27;;;5.00;;
13805;SDS011;6974;53.606;9.872;2022-11-04T01:26:43;9.47;;;5.53;;
13805;SDS011;6974;53.606;9.872;2022-11-04T01:29:11;7.60;;;5.33;;
13805;SDS011;6974;53.606;9.872;2022-11-04T01:31:38;8.73;;;5.20;;
13805;SDS011;6974;53.606;9.872;2022-11-04T01:34:05;7.17;;;5.07;;
13805;SDS011;6974;53.606;9.872;2022-11-04T01:36:32;8.40;;;4.87;;
13805;SDS011;6974;53.606;9.872;2022-11-04T01:38:59;10.13;;;4.93;;
13805;SDS011;6974;53.606;9.872;2022-11-04T01:41:26;8.50;;;5.27;;
13805;SDS011;6974;53.606;9.872;2022-11-04T01:43:55;7.27;;;5.40;;
13805;SDS011;6974;53.606;9.872;2022-11-04T01:46:30;8.00;;;4.90;;
13805;SDS011;6974;53.606;9.872;2022-11-04T01:49:03;8.33;;;5.33;;
13805;SDS011;6974;53.606;9.872;2022-11-04T01:51:47;6.83;;;4.70;;
13805;SDS011;6974;53.606;9.872;2022-11-04T01:54:15;7.70;;;4.73;;
13805;SDS011;6974;53.606;9.872;2022-11-04T01:56:43;7.43;;;5.00;;
13805;SDS011;6974;53.606;9.872;2022-11-04T01:59:14;7.63;;;5.13;;
13805;SDS011;6974;53.606;9.872;2022-11-04T02:01:46;8.30;;;4.80;;
13805;SDS011;6974;53.606;9.872;2022-11-04T02:04:13;7.50;;;4.90;;
13805;SDS011;6974;53.606;9.872;2022-11-04T02:06:54;6.20;;;4.57;;
13805;SDS011;6974;53.606;9.872;2022-11-04T02:09:25;8.33;;;4.90;;
13805;SDS011;6974;53.606;9.872;2022-11-04T02:11:53;7.87;;;4.57;;
13805;SDS011;6974;53.606;9.872;2022-11-04T02:14:37;8.63;;;4.43;;
13805;SDS011;6974;53.606;9.872;2022-11-04T02:17:09;7.03;;;5.00;;
13805;SDS011;6974;53.606;9.872;2022-11-04T02:19:57;6.43;;;4.83;;
13805;SDS011;6974;53.606;9.872;2022-11-04T02:25:47;12.33;;;5.07;;
13805;SDS011;6974;53.606;9.872;2022-11-04T02:28:49;8.50;;;4.70;;
13805;SDS011;6974;53.606;9.872;2022-11-04T02:31:40;6.33;;;4.23;;
13805;SDS011;6974;53.606;9.872;2022-11-04T02:34:17;6.97;;;4.67;;
13805;SDS011;6974;53.606;9.872;2022-11-04T02:36:51;6.63;;;4.73;;
13805;SDS011;6974;53.606;9.872;2022-11-04T02:39:26;6.87;;;5.13;;
13805;SDS011;6974;53.606;9.872;2022-11-04T02:42:00;6.23;;;4.37;;
13805;SDS011;6974;53.606;9.872;2022-11-04T02:44:36;8.57;;;4.63;;
13805;SDS011;6974;53.606;9.872;2022-11-04T02:47:10;6.80;;;4.47;;
13805;SDS011;6974;53.606;9.872;2022-11-04T02:49:42;7.27;;;4.57;;
13805;SDS011;6974;53.606;9.872;2022-11-04T02:52:15;6.63;;;4.30;;
13805;SDS011;6974;53.606;9.872;2022-11-04T02:54:47;7.00;;;4.43;;
13805;SDS011;6974;53.606;9.872;2022-11-04T02:57:18;7.90;;;4.73;;
13805;SDS011;6974;53.606;9.872;2022-11-04T02:59:51;5.93;;;4.47;;
13805;SDS011;6974;53.606;9.872;2022-11-04T03:02:24;6.77;;;4.90;;
13805;SDS011;6974;53.606;9.872;2022-11-04T03:04:53;6.00;;;5.03;;
13805;SDS011;6974;53.606;9.872;2022-11-04T03:07:22;6.77;;;4.70;;
13805;SDS011;6974;53.606;9.872;2022-11-04T03:09:53;7.17;;;4.90;;
13805;SDS011;6974;53.606;9.872;2022-11-04T03:12:24;5.67;;;4.90;;
13805;SDS011;6974;53.606;9.872;2022-11-04T03:14:58;6.90;;;4.90;;
13805;SDS011;6974;53.606;9.872;2022-11-04T03:17:29;7.13;;;4.50;;
13805;SDS011;6974;53.606;9.872;2022-11-04T03:20:00;7.53;;;4.73;;
13805;SDS011;6974;53.606;9.872;2022-11-04T03:22:32;5.30;;;4.80;;
13805;SDS011;6974;53.606;9.872;2022-11-04T03:25:02;6.07;;;4.93;;
13805;SDS011;6974;53.606;9.872;2022-11-04T03:27:32;5.77;;;4.97;;
13805;SDS011;6974;53.606;9.872;2022-11-04T03:30:09;7.80;;;5.10;;
13805;SDS011;6974;53.606;9.872;2022-11-04T03:32:40;5.70;;;4.77;;
13805;SDS011;6974;53.606;9.872;2022-11-04T03:35:12;5.90;;;4.83;;
13805;SDS011;6974;53.606;9.872;2022-11-04T03:37:41;8.67;;;5.57;;
13805;SDS011;6974;53.606;9.872;2022-11-04T03:40:08;7.07;;;4.93;;
13805;SDS011;6974;53.606;9.872;2022-11-04T03:42:39;6.73;;;4.93;;
13805;SDS011;6974;53.606;9.872;2022-11-04T03:45:12;6.10;;;5.50;;
13805;SDS011;6974;53.606;9.872;2022-11-04T03:47:39;6.77;;;5.17;;
13805;SDS011;6974;53.606;9.872;2022-11-04T03:50:08;5.80;;;5.30;;
13805;SDS011;6974;53.606;9.872;2022-11-04T03:52:39;6.67;;;5.63;;
13805;SDS011;6974;53.606;9.872;2022-11-04T03:55:06;7.30;;;6.20;;
13805;SDS011;6974;53.606;9.872;2022-11-04T03:57:38;7.63;;;5.43;;
13805;SDS011;6974;53.606;9.872;2022-11-04T04:00:15;8.87;;;5.67;;
13805;SDS011;6974;53.606;9.872;2022-11-04T04:02:49;6.37;;;5.33;;
13805;SDS011;6974;53.606;9.872;2022-11-04T04:05:26;5.80;;;5.30;;
13805;SDS011;6974;53.606;9.872;2022-11-04T04:07:56;6.60;;;5.90;;
13805;SDS011;6974;53.606;9.872;2022-11-04T04:10:36;6.30;;;5.70;;
13805;SDS011;6974;53.606;9.872;2022-11-04T04:13:17;7.27;;;5.80;;
13805;SDS011;6974;53.606;9.872;2022-11-04T04:15:51;7.47;;;6.10;;
13805;SDS011;6974;53.606;9.872;2022-11-04T04:18:23;6.73;;;6.00;;
13805;SDS011;6974;53.606;9.872;2022-11-04T04:20:56;6.03;;;5.43;;
13805;SDS011;6974;53.606;9.872;2022-11-04T04:23:27;7.03;;;5.73;;
13805;SDS011;6974;53.606;9.872;2022-11-04T04:26:14;5.97;;;4.70;;
13805;SDS011;6974;53.606;9.872;2022-11-04T04:29:01;5.30;;;4.80;;
13805;SDS011;6974;53.606;9.872;2022-11-04T04:31:32;5.77;;;4.60;;
13805;SDS011;6974;53.606;9.872;2022-11-04T04:34:22;5.00;;;4.07;;
13805;SDS011;6974;53.606;9.872;2022-11-04T04:36:52;6.23;;;4.10;;
13805;SDS011;6974;53.606;9.872;2022-11-04T04:39:25;3.83;;;3.53;;
13805;SDS011;6974;53.606;9.872;2022-11-04T04:42:15;4.17;;;3.50;;
13805;SDS011;6974;53.606;9.872;2022-11-04T04:45:00;3.57;;;3.13;;
13805;SDS011;6974;53.606;9.872;2022-11-04T04:47:32;4.00;;;3.60;;
13805;SDS011;6974;53.606;9.872;2022-11-04T04:50:03;5.17;;;3.07;;
13805;SDS011;6974;53.606;9.872;2022-11-04T04:52:32;3.17;;;2.87;;
13805;SDS011;6974;53.606;9.872;2022-11-04T04:55:03;3.30;;;3.00;;
13805;SDS011;6974;53.606;9.872;2022-11-04T04:57:30;3.10;;;2.70;;
13805;SDS011;6974;53.606;9.872;2022-11-04T04:59:57;3.10;;;2.47;;
13805;SDS011;6974;53.606;9.872;2022-11-04T05:02:24;2.67;;;2.30;;
13805;SDS011;6974;53.606;9.872;2022-11-04T05:04:52;2.77;;;2.30;;
13805;SDS011;6974;53.606;9.872;2022-11-04T05:07:20;3.57;;;2.30;;
13805;SDS011;6974;53.606;9.872;2022-11-04T05:09:47;2.57;;;2.30;;
13805;SDS011;6974;53.606;9.872;2022-11-04T05:12:14;2.37;;;2.17;;
13805;SDS011;6974;53.606;9.872;2022-11-04T05:14:41;2.60;;;2.40;;
13805;SDS011;6974;53.606;9.872;2022-11-04T05:17:08;2.23;;;2.03;;
13805;SDS011;6974;53.606;9.872;2022-11-04T05:19:35;3.60;;;2.70;;
13805;SDS011;6974;53.606;9.872;2022-11-04T05:22:03;3.53;;;2.43;;
13805;SDS011;6974;53.606;9.872;2022-11-04T05:24:30;2.50;;;2.30;;
13805;SDS011;6974;53.606;9.872;2022-11-04T05:26:56;2.50;;;2.27;;
13805;SDS011;6974;53.606;9.872;2022-11-04T05:29:23;3.07;;;2.50;;
13805;SDS011;6974;53.606;9.872;2022-11-04T05:31:51;3.17;;;2.43;;
13805;SDS011;6974;53.606;9.872;2022-11-04T05:34:19;2.40;;;2.20;;
13805;SDS011;6974;53.606;9.872;2022-11-04T05:36:48;3.50;;;2.00;;
13805;SDS011;6974;53.606;9.872;2022-11-04T05:39:17;2.50;;;2.30;;
13805;SDS011;6974;53.606;9.872;2022-11-04T05:41:44;2.70;;;2.50;;
13805;SDS011;6974;53.606;9.872;2022-11-04T05:44:11;2.50;;;2.30;;
13805;SDS011;6974;53.606;9.872;2022-11-04T05:46:40;6.23;;;2.73;;
13805;SDS011;6974;53.606;9.872;2022-11-04T05:49:07;4.30;;;2.73;;
13805;SDS011;6974;53.606;9.872;2022-11-04T05:51:34;4.63;;;4.10;;
13805;SDS011;6974;53.606;9.872;2022-11-04T05:54:01;4.83;;;2.83;;
13805;SDS011;6974;53.606;9.872;2022-11-04T05:56:29;4.20;;;3.10;;
13805;SDS011;6974;53.606;9.872;2022-11-04T05:58:57;3.10;;;2.83;;
13805;SDS011;6974;53.606;9.872;2022-11-04T06:01:26;4.33;;;2.93;;
13805;SDS011;6974;53.606;9.872;2022-11-04T06:03:55;2.80;;;2.60;;
13805;SDS011;6974;53.606;9.872;2022-11-04T06:06:25;3.80;;;3.00;;
13805;SDS011;6974;53.606;9.872;2022-11-04T06:08:53;3.00;;;2.80;;
13805;SDS011;6974;53.606;9.872;2022-11-04T06:11:20;3.40;;;3.10;;
13805;SDS011;6974;53.606;9.872;2022-11-04T06:13:50;3.67;;;3.27;;
13805;SDS011;6974;53.606;9.872;2022-11-04T06:16:18;4.10;;;3.70;;
13805;SDS011;6974;53.606;9.872;2022-11-04T06:18:46;4.63;;;3.70;;
13805;SDS011;6974;53.606;9.872;2022-11-04T06:21:21;4.30;;;3.90;;
13805;SDS011;6974;53.606;9.872;2022-11-04T06:23:50;3.90;;;3.50;;
13805;SDS011;6974;53.606;9.872;2022-11-04T06:26:19;4.23;;;3.93;;
13805;SDS011;6974;53.606;9.872;2022-11-04T06:28:47;3.60;;;3.30;;
13805;SDS011;6974;53.606;9.872;2022-11-04T06:31:15;3.70;;;3.40;;
13805;SDS011;6974;53.606;9.872;2022-11-04T06:33:44;4.07;;;3.77;;
13805;SDS011;6974;53.606;9.872;2022-11-04T06:36:13;4.43;;;4.00;;
13805;SDS011;6974;53.606;9.872;2022-11-04T06:38:41;5.00;;;4.10;;
13805;SDS011;6974;53.606;9.872;2022-11-04T06:41:10;3.90;;;3.60;;
13805;SDS011;6974;53.606;9.872;2022-11-04T06:43:38;4.50;;;4.03;;
13805;SDS011;6974;53.606;9.872;2022-11-04T06:46:06;4.80;;;4.30;;
13805;SDS011;6974;53.606;9.872;2022-11-04T06:48:52;5.47;;;4.10;;
13805;SDS011;6974;53.606;9.872;2022-11-04T06:51:20;4.30;;;3.93;;
13805;SDS011;6974;53.606;9.872;2022-11-04T06:53:46;5.03;;;4.10;;
13805;SDS011;6974;53.606;9.872;2022-11-04T06:56:13;4.60;;;4.20;;
13805;SDS011;6974;53.606;9.872;2022-11-04T06:58:40;6.40;;;3.90;;
13805;SDS011;6974;53.606;9.872;2022-11-04T07:01:07;5.00;;;4.50;;
13805;SDS011;6974;53.606;9.872;2022-11-04T07:03:36;4.47;;;4.07;;
13805;SDS011;6974;53.606;9.872;2022-11-04T07:06:06;6.97;;;4.57;;
13805;SDS011;6974;53.606;9.872;2022-11-04T07:08:35;5.03;;;4.63;;
13805;SDS011;6974;53.606;9.872;2022-11-04T07:11:05;5.67;;;4.60;;
13805;SDS011;6974;53.606;9.872;2022-11-04T07:13:33;5.57;;;4.83;;
13805;SDS011;6974;53.606;9.872;2022-11-04T07:16:03;5.30;;;4.80;;
13805;SDS011;6974;53.606;9.872;2022-11-04T07:18:30;5.43;;;4.93;;
13805;SDS011;6974;53.606;9.872;2022-11-04T07:20:58;4.70;;;4.30;;
13805;SDS011;6974;53.606;9.872;2022-11-04T07:23:26;5.50;;;5.00;;
13805;SDS011;6974;53.606;9.872;2022-11-04T07:25:58;5.53;;;4.93;;
13805;SDS011;6974;53.606;9.872;2022-11-04T07:28:25;5.43;;;4.87;;
13805;SDS011;6974;53.606;9.872;2022-11-04T07:30:54;5.53;;;4.97;;
13805;SDS011;6974;53.606;9.872;2022-11-04T07:33:23;5.03;;;4.60;;
13805;SDS011;6974;53.606;9.872;2022-11-04T07:35:51;5.40;;;4.90;;
13805;SDS011;6974;53.606;9.872;2022-11-04T07:38:20;5.40;;;4.87;;
13805;SDS011;6974;53.606;9.872;2022-11-04T07:40:47;17.97;;;6.30;;
13805;SDS011;6974;53.606;9.872;2022-11-04T07:43:15;6.90;;;5.57;;
13805;SDS011;6974;53.606;9.872;2022-11-04T07:45:41;6.43;;;5.50;;
13805;SDS011;6974;53.606;9.872;2022-11-04T07:48:08;5.60;;;5.10;;
13805;SDS011;6974;53.606;9.872;2022-11-04T07:50:37;5.63;;;5.10;;
13805;SDS011;6974;53.606;9.872;2022-11-04T07:53:04;6.63;;;5.90;;
13805;SDS011;6974;53.606;9.872;2022-11-04T07:55:32;5.70;;;5.13;;
13805;SDS011;6974;53.606;9.872;2022-11-04T07:58:01;6.03;;;5.47;;
13805;SDS011;6974;53.606;9.872;2022-11-04T08:00:28;6.73;;;5.83;;
13805;SDS011;6974;53.606;9.872;2022-11-04T08:02:55;6.17;;;5.57;;
13805;SDS011;6974;53.606;9.872;2022-11-04T08:05:22;5.87;;;5.37;;
13805;SDS011;6974;53.606;9.872;2022-11-04T08:07:49;6.50;;;5.90;;
13805;SDS011;6974;53.606;9.872;2022-11-04T08:10:17;6.40;;;5.80;;
13805;SDS011;6974;53.606;9.872;2022-11-04T08:37:26;7.23;;;6.43;;
13805;SDS011;6974;53.606;9.872;2022-11-04T08:39:53;7.00;;;6.40;;
13805;SDS011;6974;53.606;9.872;2022-11-04T08:42:20;7.97;;;6.90;;
13805;SDS011;6974;53.606;9.872;2022-11-04T08:44:49;7.07;;;6.47;;
13805;SDS011;6974;53.606;9.872;2022-11-04T08:47:16;7.33;;;6.63;;
13805;SDS011;6974;53.606;9.872;2022-11-04T08:49:43;7.07;;;6.47;;
13805;SDS011;6974;53.606;9.872;2022-11-04T08:52:09;8.20;;;7.50;;
13805;SDS011;6974;53.606;9.872;2022-11-04T08:54:38;7.37;;;6.73;;
13805;SDS011;6974;53.606;9.872;2022-11-04T08:57:04;8.23;;;6.10;;
13805;SDS011;6974;53.606;9.872;2022-11-04T08:59:32;7.30;;;6.60;;
13805;SDS011;6974;53.606;9.872;2022-11-04T09:01:58;6.30;;;5.80;;
13805;SDS011;6974;53.606;9.872;2022-11-04T09:04:25;6.30;;;5.70;;
13805;SDS011;6974;53.606;9.872;2022-11-04T09:06:52;6.60;;;6.00;;
13805;SDS011;6974;53.606;9.872;2022-11-04T09:09:20;6.87;;;6.17;;
13805;SDS011;6974;53.606;9.872;2022-11-04T09:11:48;6.77;;;6.17;;
13805;SDS011;6974;53.606;9.872;2022-11-04T09:14:15;5.63;;;5.20;;
13805;SDS011;6974;53.606;9.872;2022-11-04T09:16:42;6.37;;;5.77;;
13805;SDS011;6974;53.606;9.872;2022-11-04T09:19:09;7.20;;;6.07;;
13805;SDS011;6974;53.606;9.872;2022-11-04T09:21:36;5.93;;;5.43;;
13805;SDS011;6974;53.606;9.872;2022-11-04T09:24:03;6.77;;;5.63;;
13805;SDS011;6974;53.606;9.872;2022-11-04T09:26:31;5.97;;;5.40;;
13805;SDS011;6974;53.606;9.872;2022-11-04T09:28:59;7.03;;;5.70;;
13805;SDS011;6974;53.606;9.872;2022-11-04T09:31:27;7.37;;;5.23;;
13805;SDS011;6974;53.606;9.872;2022-11-04T09:33:55;4.63;;;4.23;;
13805;SDS011;6974;53.606;9.872;2022-11-04T09:36:22;4.73;;;4.20;;
13805;SDS011;6974;53.606;9.872;2022-11-04T09:38:49;4.23;;;3.93;;
13805;SDS011;6974;53.606;9.872;2022-11-04T09:44:16;5.27;;;4.30;;
13805;SDS011;6974;53.606;9.872;2022-11-04T09:46:51;4.57;;;3.53;;
13805;SDS011;6974;53.606;9.872;2022-11-04T09:49:20;3.10;;;2.90;;
13805;SDS011;6974;53.606;9.872;2022-11-04T09:51:48;5.77;;;3.23;;
13805;SDS011;6974;53.606;9.872;2022-11-04T09:54:18;2.93;;;2.73;;
13805;SDS011;6974;53.606;9.872;2022-11-04T09:56:48;2.70;;;2.50;;
13805;SDS011;6974;53.606;9.872;2022-11-04T09:59:21;3.37;;;2.60;;
13805;SDS011;6974;53.606;9.872;2022-11-04T10:02:01;2.67;;;2.47;;
13805;SDS011;6974;53.606;9.872;2022-11-04T10:04:45;3.53;;;2.40;;
13805;SDS011;6974;53.606;9.872;2022-11-04T10:07:25;3.43;;;2.70;;
13805;SDS011;6974;53.606;9.872;2022-11-04T10:10:05;2.60;;;2.37;;
13805;SDS011;6974;53.606;9.872;2022-11-04T10:12:42;2.60;;;2.40;;
13805;SDS011;6974;53.606;9.872;2022-11-04T10:15:23;2.50;;;2.30;;
13805;SDS011;6974;53.606;9.872;2022-11-04T10:18:06;2.40;;;2.20;;
13805;SDS011;6974;53.606;9.872;2022-11-04T10:20:48;2.27;;;2.07;;
13805;SDS011;6974;53.606;9.872;2022-11-04T10:23:22;3.03;;;2.20;;
13805;SDS011;6974;53.606;9.872;2022-11-04T10:25:56;2.17;;;1.97;;
13805;SDS011;6974;53.606;9.872;2022-11-04T10:28:30;3.30;;;2.20;;
13805;SDS011;6974;53.606;9.872;2022-11-04T10:31:04;3.07;;;1.90;;
13805;SDS011;6974;53.606;9.872;2022-11-04T10:33:32;2.30;;;2.00;;
13805;SDS011;6974;53.606;9.872;2022-11-04T10:36:00;3.03;;;2.30;;
13805;SDS011;6974;53.606;9.872;2022-11-04T10:38:32;3.87;;;2.10;;
13805;SDS011;6974;53.606;9.872;2022-11-04T10:41:04;3.00;;;2.00;;
13805;SDS011;6974;53.606;9.872;2022-11-04T10:43:43;2.57;;;2.37;;
13805;SDS011;6974;53.606;9.872;2022-11-04T10:46:16;3.80;;;2.57;;
13805;SDS011;6974;53.606;9.872;2022-11-04T10:48:53;3.17;;;2.07;;
13805;SDS011;6974;53.606;9.872;2022-11-04T10:51:25;2.93;;;2.23;;
13805;SDS011;6974;53.606;9.872;2022-11-04T10:53:53;2.10;;;1.90;;
13805;SDS011;6974;53.606;9.872;2022-11-04T10:56:24;3.87;;;2.03;;
13805;SDS011;6974;53.606;9.872;2022-11-04T10:58:59;2.43;;;1.83;;
13805;SDS011;6974;53.606;9.872;2022-11-04T11:01:35;3.83;;;2.20;;
13805;SDS011;6974;53.606;9.872;2022-11-04T11:04:05;3.13;;;2.40;;
13805;SDS011;6974;53.606;9.872;2022-11-04T11:06:34;4.20;;;2.57;;
13805;SDS011;6974;53.606;9.872;2022-11-04T11:09:10;3.70;;;2.40;;
13805;SDS011;6974;53.606;9.872;2022-11-04T11:11:41;2.77;;;1.90;;
13805;SDS011;6974;53.606;9.872;2022-11-04T11:14:18;2.33;;;1.77;;
13805;SDS011;6974;53.606;9.872;2022-11-04T11:17:03;3.20;;;2.40;;
13805;SDS011;6974;53.606;9.872;2022-11-04T11:19:44;2.43;;;1.77;;
13805;SDS011;6974;53.606;9.872;2022-11-04T11:25:12;2.47;;;1.60;;
13805;SDS011;6974;53.606;9.872;2022-11-04T11:27:46;3.17;;;1.50;;
13805;SDS011;6974;53.606;9.872;2022-11-04T11:30:21;1.50;;;1.40;;
13805;SDS011;6974;53.606;9.872;2022-11-04T11:32:53;2.77;;;1.40;;
13805;SDS011;6974;53.606;9.872;2022-11-04T11:35:24;1.87;;;1.70;;
13805;SDS011;6974;53.606;9.872;2022-11-04T11:37:54;2.17;;;1.63;;
13805;SDS011;6974;53.606;9.872;2022-11-04T11:40:23;1.97;;;1.40;;
13805;SDS011;6974;53.606;9.872;2022-11-04T11:42:55;2.63;;;1.57;;
13805;SDS011;6974;53.606;9.872;2022-11-04T11:45:24;6.93;;;1.80;;
13805;SDS011;6974;53.606;9.872;2022-11-04T11:47:53;2.03;;;1.20;;
13805;SDS011;6974;53.606;9.872;2022-11-04T11:50:21;3.00;;;1.30;;
13805;SDS011;6974;53.606;9.872;2022-11-04T11:52:55;2.70;;;1.23;;
13805;SDS011;6974;53.606;9.872;2022-11-04T11:55:38;0.97;;;0.87;;
13805;SDS011;6974;53.606;9.872;2022-11-04T11:58:10;2.67;;;1.30;;
13805;SDS011;6974;53.606;9.872;2022-11-04T12:00:48;3.03;;;1.40;;
13805;SDS011;6974;53.606;9.872;2022-11-04T12:03:19;2.80;;;1.20;;
13805;SDS011;6974;53.606;9.872;2022-11-04T12:05:56;2.37;;;1.40;;
13805;SDS011;6974;53.606;9.872;2022-11-04T12:08:41;3.07;;;1.63;;
13805;SDS011;6974;53.606;9.872;2022-11-04T12:11:15;4.03;;;1.30;;
13805;SDS011;6974;53.606;9.872;2022-11-04T12:13:52;2.70;;;1.43;;
13805;SDS011;6974;53.606;9.872;2022-11-04T12:16:26;2.33;;;1.37;;
13805;SDS011;6974;53.606;9.872;2022-11-04T12:21:53;4.20;;;1.20;;
13805;SDS011;6974;53.606;9.872;2022-11-04T12:24:27;2.23;;;1.33;;
13805;SDS011;6974;53.606;9.872;2022-11-04T12:27:02;3.33;;;1.67;;
13805;SDS011;6974;53.606;9.872;2022-11-04T12:29:40;3.13;;;1.40;;
13805;SDS011;6974;53.606;9.872;2022-11-04T12:32:22;4.33;;;1.43;;
13805;SDS011;6974;53.606;9.872;2022-11-04T12:35:02;3.20;;;1.43;;
13805;SDS011;6974;53.606;9.872;2022-11-04T12:37:39;2.97;;;1.40;;
13805;SDS011;6974;53.606;9.872;2022-11-04T12:40:16;3.67;;;1.40;;
13805;SDS011;6974;53.606;9.872;2022-11-04T12:42:50;4.13;;;1.60;;
13805;SDS011;6974;53.606;9.872;2022-11-04T12:45:29;6.40;;;1.67;;
13805;SDS011;6974;53.606;9.872;2022-11-04T12:48:09;1.90;;;1.30;;
13805;SDS011;6974;53.606;9.872;2022-11-04T12:50:45;4.23;;;1.77;;
13805;SDS011;6974;53.606;9.872;2022-11-04T12:53:23;2.97;;;1.60;;
13805;SDS011;6974;53.606;9.872;2022-11-04T12:56:00;4.73;;;1.53;;
13805;SDS011;6974;53.606;9.872;2022-11-04T12:58:38;3.47;;;1.87;;
13805;SDS011;6974;53.606;9.872;2022-11-04T13:01:24;4.77;;;1.53;;
13805;SDS011;6974;53.606;9.872;2022-11-04T13:03:57;5.13;;;2.17;;
13805;SDS011;6974;53.606;9.872;2022-11-04T13:06:30;4.10;;;1.50;;
13805;SDS011;6974;53.606;9.872;2022-11-04T13:09:02;4.23;;;1.43;;
13805;SDS011;6974;53.606;9.872;2022-11-04T13:11:35;3.20;;;1.83;;
13805;SDS011;6974;53.606;9.872;2022-11-04T13:14:07;2.00;;;1.30;;
13805;SDS011;6974;53.606;9.872;2022-11-04T13:16:40;3.40;;;1.30;;
13805;SDS011;6974;53.606;9.872;2022-11-04T13:19:13;3.20;;;1.50;;
13805;SDS011;6974;53.606;9.872;2022-11-04T13:21:54;3.67;;;1.80;;
13805;SDS011;6974;53.606;9.872;2022-11-04T13:24:24;4.17;;;1.60;;
13805;SDS011;6974;53.606;9.872;2022-11-04T13:26:54;3.77;;;1.53;;
13805;SDS011;6974;53.606;9.872;2022-11-04T13:29:25;5.73;;;1.80;;
13805;SDS011;6974;53.606;9.872;2022-11-04T13:31:54;3.97;;;1.80;;
13805;SDS011;6974;53.606;9.872;2022-11-04T13:34:28;4.03;;;2.00;;
13805;SDS011;6974;53.606;9.872;2022-11-04T13:37:07;4.70;;;1.83;;
13805;SDS011;6974;53.606;9.872;2022-11-04T13:39:43;4.30;;;1.70;;
13805;SDS011;6974;53.606;9.872;2022-11-04T13:42:20;4.70;;;1.80;;
13805;SDS011;6974;53.606;9.872;2022-11-04T13:45:12;4.10;;;1.97;;
13805;SDS011;6974;53.606;9.872;2022-11-04T13:47:43;4.50;;;1.90;;
13805;SDS011;6974;53.606;9.872;2022-11-04T13:50:26;6.87;;;1.73;;
13805;SDS011;6974;53.606;9.872;2022-11-04T13:53:00;2.60;;;1.53;;
13805;SDS011;6974;53.606;9.872;2022-11-04T13:55:28;5.40;;;2.00;;
13805;SDS011;6974;53.606;9.872;2022-11-04T13:57:56;4.20;;;1.80;;
13805;SDS011;6974;53.606;9.872;2022-11-04T14:00:25;6.40;;;2.27;;
13805;SDS011;6974;53.606;9.872;2022-11-04T14:02:52;4.90;;;1.87;;
13805;SDS011;6974;53.606;9.872;2022-11-04T14:08:28;3.43;;;1.50;;
13805;SDS011;6974;53.606;9.872;2022-11-04T14:11:10;4.23;;;1.83;;
13805;SDS011;6974;53.606;9.872;2022-11-04T14:13:41;4.47;;;1.73;;
13805;SDS011;6974;53.606;9.872;2022-11-04T14:16:09;4.03;;;1.73;;
13805;SDS011;6974;53.606;9.872;2022-11-04T14:18:38;2.73;;;1.50;;
13805;SDS011;6974;53.606;9.872;2022-11-04T14:21:06;2.80;;;1.60;;
13805;SDS011;6974;53.606;9.872;2022-11-04T14:23:36;3.67;;;1.90;;
13805;SDS011;6974;53.606;9.872;2022-11-04T14:26:05;4.23;;;1.70;;
13805;SDS011;6974;53.606;9.872;2022-11-04T14:28:33;3.50;;;1.90;;
13805;SDS011;6974;53.606;9.872;2022-11-04T14:31:01;3.23;;;1.50;;
13805;SDS011;6974;53.606;9.872;2022-11-04T14:33:33;3.77;;;1.60;;
13805;SDS011;6974;53.606;9.872;2022-11-04T14:36:13;4.07;;;1.70;;
13805;SDS011;6974;53.606;9.872;2022-11-04T14:38:52;3.67;;;1.87;;
13805;SDS011;6974;53.606;9.872;2022-11-04T14:41:22;4.80;;;1.90;;
13805;SDS011;6974;53.606;9.872;2022-11-04T14:43:57;2.37;;;1.70;;
13805;SDS011;6974;53.606;9.872;2022-11-04T14:46:27;5.10;;;1.83;;
13805;SDS011;6974;53.606;9.872;2022-11-04T14:48:57;3.07;;;1.60;;
13805;SDS011;6974;53.606;9.872;2022-11-04T14:51:26;6.80;;;2.17;;
13805;SDS011;6974;53.606;9.872;2022-11-04T14:53:58;3.13;;;1.80;;
13805;SDS011;6974;53.606;9.872;2022-11-04T14:56:29;3.63;;;1.77;;
13805;SDS011;6974;53.606;9.872;2022-11-04T14:58:57;3.20;;;1.73;;
13805;SDS011;6974;53.606;9.872;2022-11-04T15:01:25;4.50;;;1.77;;
13805;SDS011;6974;53.606;9.872;2022-11-04T15:03:54;2.90;;;1.63;;
13805;SDS011;6974;53.606;9.872;2022-11-04T15:06:23;2.77;;;1.57;;
13805;SDS011;6974;53.606;9.872;2022-11-04T15:08:52;4.17;;;1.57;;
13805;SDS011;6974;53.606;9.872;2022-11-04T15:11:22;3.67;;;1.70;;
13805;SDS011;6974;53.606;9.872;2022-11-04T15:14:11;5.93;;;2.03;;
13805;SDS011;6974;53.606;9.872;2022-11-04T15:16:40;4.07;;;2.10;;
13805;SDS011;6974;53.606;9.872;2022-11-04T15:19:10;4.27;;;1.80;;
13805;SDS011;6974;53.606;9.872;2022-11-04T15:21:37;6.57;;;1.80;;
13805;SDS011;6974;53.606;9.872;2022-11-04T15:24:05;3.97;;;1.87;;
13805;SDS011;6974;53.606;9.872;2022-11-04T15:26:37;2.97;;;1.60;;
13805;SDS011;6974;53.606;9.872;2022-11-04T15:29:06;2.90;;;1.53;;
13805;SDS011;6974;53.606;9.872;2022-11-04T15:31:35;5.53;;;1.97;;
13805;SDS011;6974;53.606;9.872;2022-11-04T15:34:07;4.40;;;1.80;;
13805;SDS011;6974;53.606;9.872;2022-11-04T15:36:38;5.07;;;2.10;;
13805;SDS011;6974;53.606;9.872;2022-11-04T15:39:06;6.40;;;2.33;;
13805;SDS011;6974;53.606;9.872;2022-11-04T15:41:39;5.20;;;2.00;;
13805;SDS011;6974;53.606;9.872;2022-11-04T15:44:25;3.47;;;2.00;;
13805;SDS011;6974;53.606;9.872;2022-11-04T15:46:54;4.57;;;2.10;;
13805;SDS011;6974;53.606;9.872;2022-11-04T15:49:23;5.00;;;2.10;;
13805;SDS011;6974;53.606;9.872;2022-11-04T15:51:51;6.37;;;2.07;;
13805;SDS011;6974;53.606;9.872;2022-11-04T15:54:23;2.87;;;1.60;;
13805;SDS011;6974;53.606;9.872;2022-11-04T15:56:55;4.40;;;1.70;;
13805;SDS011;6974;53.606;9.872;2022-11-04T15:59:25;4.47;;;1.77;;
13805;SDS011;6974;53.606;9.872;2022-11-04T16:01:54;3.27;;;2.10;;
13805;SDS011;6974;53.606;9.872;2022-11-04T16:04:23;4.00;;;1.87;;
13805;SDS011;6974;53.606;9.872;2022-11-04T16:07:04;3.70;;;2.03;;